Salina, KS (67401)

12:21 PM CST on December 07, 2016 (GMT -0600)
Central Salina | | Change Station

Elev 1243 ft 38.82 °N, 97.62 °W | Updated 34 seconds ago

Light Snow
Light Snow Mist
26.2 °F
Feels Like 23 °F
N
3.1
Wind Variable Wind from North
Gusts 5.4 mph

Today
High -- | Low -- °F
--% Chance of Precip.
Yesterday
High -- | Low -- °F
Precip. -- in
Pressure 30.40 in
Visibility 1.0 miles
Clouds Few 900 ft
Mostly Cloudy 1800 ft
Overcast 2800 ft
Windchill 23 °F
Dew Point 22 °F
Humidity 82%
Rainfall 0.00 in
Snow Depth Not available.
7:35 AM 5:08 PM
First Quarter, 54% visible
METAR KSLN 071753Z 36014KT 1SM -SN BR FEW009 BKN018 OVC028 M04/M06 A3036 RMK AO2 TWR VIS 2 SLP294 P0000 60000 T10391061 11017 21039 51006
Pressure 30.40 in
Visibility 1.0 miles
Clouds Few 900 ft
Mostly Cloudy 1800 ft
Overcast 2800 ft
Windchill 23 °F
Dew Point 22 °F
Humidity 82%
Rainfall 0.00 in
Snow Depth Not available.
7:35 AM 5:08 PM
First Quarter, 54% visible
METAR KSLN 071753Z 36014KT 1SM -SN BR FEW009 BKN018 OVC028 M04/M06 A3036 RMK AO2 TWR VIS 2 SLP294 P0000 60000 T10391061 11017 21039 51006

10-Day Weather Forecast

Almanac

Astronomy

Dec. 07, 2016 Rise Set
Actual Time
Civil Twilight
Nautical Twilight
Astronomical Twilight
Moon
Length of Visible Light
Length of Day
Tomorrow will be .
, % of the Moon is Illuminated

Today's Extremes

State Highs State Lows

Community

WunderPhotos

Upload Photos

1,956,160 photos uploaded!

WunderBlog® & News

Nearby

Air Quality

  Air Quality AQ Index Pollutant
Not available.

Snow Depth

Station Depth Elevation

Earthquake Activity

City Distance Mag. Time & Date
Minimum magnitude displayed is 2.5.

Coastal Water Temperatures

Place Temperature

Stations

Nearby Weather Stations

Station Location Temp. Windchill Dew Point Humidity Wind Precip. Elev Updated Type
                   

Watches & Warnings

There are currently no watches in effect.